sensor_id;sensor_type;location;lat;lon;timestamp;pressure;altitude;pressure_sealevel;temperature;humidity
66273;BME280;58450;52.150;4.466;2022-12-11T00:01:35;101076.41;;;2.95;100.00
66273;BME280;58450;52.150;4.466;2022-12-11T00:04:02;101081.63;;;3.07;100.00
66273;BME280;58450;52.150;4.466;2022-12-11T00:06:31;101076.66;;;2.92;100.00
66273;BME280;58450;52.150;4.466;2022-12-11T00:08:59;101076.69;;;3.02;100.00
66273;BME280;58450;52.150;4.466;2022-12-11T00:11:26;101074.72;;;2.94;100.00
66273;BME280;58450;52.150;4.466;2022-12-11T00:13:54;101073.28;;;2.90;100.00
66273;BME280;58450;52.150;4.466;2022-12-11T00:16:21;101070.72;;;3.10;100.00
66273;BME280;58450;52.150;4.466;2022-12-11T00:18:49;101074.25;;;2.89;100.00
66273;BME280;58450;52.150;4.466;2022-12-11T00:21:16;101074.50;;;3.07;100.00
66273;BME280;58450;52.150;4.466;2022-12-11T00:23:45;101073.56;;;2.87;100.00
66273;BME280;58450;52.150;4.466;2022-12-11T00:26:14;101072.56;;;2.88;100.00
66273;BME280;58450;52.150;4.466;2022-12-11T00:28:43;101072.00;;;3.16;100.00
66273;BME280;58450;52.150;4.466;2022-12-11T00:31:15;101072.44;;;2.90;100.00
66273;BME280;58450;52.150;4.466;2022-12-11T00:33:44;101073.56;;;2.87;100.00
66273;BME280;58450;52.150;4.466;2022-12-11T00:36:15;101071.00;;;2.86;100.00
66273;BME280;58450;52.150;4.466;2022-12-11T00:38:46;101074.38;;;2.88;100.00
66273;BME280;58450;52.150;4.466;2022-12-11T00:41:15;101070.63;;;2.90;100.00
66273;BME280;58450;52.150;4.466;2022-12-11T00:43:42;101074.81;;;2.93;100.00
66273;BME280;58450;52.150;4.466;2022-12-11T00:46:11;101072.84;;;2.85;100.00
66273;BME280;58450;52.150;4.466;2022-12-11T00:48:38;101065.31;;;2.90;100.00
66273;BME280;58450;52.150;4.466;2022-12-11T00:51:06;101063.75;;;3.09;100.00
66273;BME280;58450;52.150;4.466;2022-12-11T00:53:34;101070.16;;;3.06;100.00
66273;BME280;58450;52.150;4.466;2022-12-11T00:56:10;101064.34;;;2.91;100.00
66273;BME280;58450;52.150;4.466;2022-12-11T00:58:39;101066.41;;;2.88;100.00
66273;BME280;58450;52.150;4.466;2022-12-11T01:01:07;101061.94;;;2.88;100.00
66273;BME280;58450;52.150;4.466;2022-12-11T01:03:36;101064.34;;;2.91;100.00
66273;BME280;58450;52.150;4.466;2022-12-11T01:06:05;101055.16;;;3.05;100.00
66273;BME280;58450;52.150;4.466;2022-12-11T01:08:33;101056.66;;;2.98;100.00
66273;BME280;58450;52.150;4.466;2022-12-11T01:11:03;101066.22;;;3.01;100.00
66273;BME280;58450;52.150;4.466;2022-12-11T01:13:33;101061.34;;;3.06;100.00
66273;BME280;58450;52.150;4.466;2022-12-11T01:16:05;101066.41;;;3.09;100.00
66273;BME280;58450;52.150;4.466;2022-12-11T01:18:34;101069.88;;;3.09;100.00
66273;BME280;58450;52.150;4.466;2022-12-11T01:21:06;101067.03;;;3.01;100.00
66273;BME280;58450;52.150;4.466;2022-12-11T01:23:34;101071.97;;;2.85;100.00
66273;BME280;58450;52.150;4.466;2022-12-11T01:26:04;101071.97;;;2.85;100.00
66273;BME280;58450;52.150;4.466;2022-12-11T01:28:34;101068.53;;;2.94;100.00
66273;BME280;58450;52.150;4.466;2022-12-11T01:31:06;101065.88;;;2.94;100.00
66273;BME280;58450;52.150;4.466;2022-12-11T01:33:35;101063.63;;;2.89;100.00
66273;BME280;58450;52.150;4.466;2022-12-11T01:36:06;101074.97;;;2.91;100.00
66273;BME280;58450;52.150;4.466;2022-12-11T01:38:35;101071.59;;;2.89;100.00
66273;BME280;58450;52.150;4.466;2022-12-11T01:41:03;101074.97;;;2.91;100.00
66273;BME280;58450;52.150;4.466;2022-12-11T01:43:31;101067.53;;;2.85;100.00
66273;BME280;58450;52.150;4.466;2022-12-11T01:46:00;101077.63;;;2.91;100.00
66273;BME280;58450;52.150;4.466;2022-12-11T01:48:29;101084.91;;;2.89;100.00
66273;BME280;58450;52.150;4.466;2022-12-11T01:51:00;101074.00;;;2.92;100.00
66273;BME280;58450;52.150;4.466;2022-12-11T01:53:32;101077.56;;;2.81;100.00
66273;BME280;58450;52.150;4.466;2022-12-11T01:56:05;101079.25;;;2.83;100.00
66273;BME280;58450;52.150;4.466;2022-12-11T01:58:39;101076.47;;;2.84;100.00
66273;BME280;58450;52.150;4.466;2022-12-11T02:01:14;101073.22;;;2.80;100.00
66273;BME280;58450;52.150;4.466;2022-12-11T02:03:49;101069.84;;;2.57;100.00
66273;BME280;58450;52.150;4.466;2022-12-11T02:06:35;101075.63;;;2.62;100.00
66273;BME280;58450;52.150;4.466;2022-12-11T02:09:07;101074.91;;;2.39;100.00
66273;BME280;58450;52.150;4.466;2022-12-11T02:11:46;101066.97;;;2.28;100.00
66273;BME280;58450;52.150;4.466;2022-12-11T02:14:33;101067.53;;;2.10;100.00
66273;BME280;58450;52.150;4.466;2022-12-11T02:17:12;101066.78;;;1.75;100.00
66273;BME280;58450;52.150;4.466;2022-12-11T02:19:59;101066.81;;;1.64;100.00
66273;BME280;58450;52.150;4.466;2022-12-11T02:26:18;101063.06;;;1.67;100.00
66273;BME280;58450;52.150;4.466;2022-12-11T02:29:00;101054.97;;;1.68;100.00
66273;BME280;58450;52.150;4.466;2022-12-11T02:31:35;101057.78;;;1.67;100.00
66273;BME280;58450;52.150;4.466;2022-12-11T02:34:11;101051.44;;;1.79;100.00
66273;BME280;58450;52.150;4.466;2022-12-11T02:36:44;101056.63;;;1.81;100.00
66273;BME280;58450;52.150;4.466;2022-12-11T02:39:18;101052.53;;;1.88;100.00
66273;BME280;58450;52.150;4.466;2022-12-11T02:41:51;101049.66;;;1.80;100.00
66273;BME280;58450;52.150;4.466;2022-12-11T02:44:24;101040.03;;;2.00;100.00
66273;BME280;58450;52.150;4.466;2022-12-11T02:46:57;101047.50;;;2.06;100.00
66273;BME280;58450;52.150;4.466;2022-12-11T02:49:27;101041.88;;;1.99;100.00
66273;BME280;58450;52.150;4.466;2022-12-11T02:51:58;101047.53;;;1.95;100.00
66273;BME280;58450;52.150;4.466;2022-12-11T02:54:31;101044.13;;;2.04;100.00
66273;BME280;58450;52.150;4.466;2022-12-11T02:57:04;101037.50;;;2.10;100.00
66273;BME280;58450;52.150;4.466;2022-12-11T02:59:39;101033.16;;;2.09;100.00
66273;BME280;58450;52.150;4.466;2022-12-11T03:02:11;101026.38;;;2.16;100.00
66273;BME280;58450;52.150;4.466;2022-12-11T03:04:41;101022.84;;;2.15;100.00
66273;BME280;58450;52.150;4.466;2022-12-11T03:07:14;101025.97;;;2.20;100.00
66273;BME280;58450;52.150;4.466;2022-12-11T03:09:45;101019.50;;;2.13;100.00
66273;BME280;58450;52.150;4.466;2022-12-11T03:12:16;101023.50;;;2.08;100.00
66273;BME280;58450;52.150;4.466;2022-12-11T03:14:48;101004.78;;;2.09;100.00
66273;BME280;58450;52.150;4.466;2022-12-11T03:17:18;101011.53;;;2.13;100.00
66273;BME280;58450;52.150;4.466;2022-12-11T03:19:54;101012.25;;;2.15;100.00
66273;BME280;58450;52.150;4.466;2022-12-11T03:22:36;101012.75;;;2.09;100.00
66273;BME280;58450;52.150;4.466;2022-12-11T03:25:16;101013.09;;;2.16;100.00
66273;BME280;58450;52.150;4.466;2022-12-11T03:27:52;101011.06;;;2.08;100.00
66273;BME280;58450;52.150;4.466;2022-12-11T03:30:27;101014.88;;;2.15;100.00
66273;BME280;58450;52.150;4.466;2022-12-11T03:33:01;101003.31;;;2.16;100.00
66273;BME280;58450;52.150;4.466;2022-12-11T03:35:33;100999.81;;;2.16;100.00
66273;BME280;58450;52.150;4.466;2022-12-11T03:38:07;101007.63;;;2.17;100.00
66273;BME280;58450;52.150;4.466;2022-12-11T03:40:40;101008.75;;;2.15;100.00
66273;BME280;58450;52.150;4.466;2022-12-11T03:43:12;101004.97;;;2.17;100.00
66273;BME280;58450;52.150;4.466;2022-12-11T03:45:44;101010.19;;;2.19;100.00
66273;BME280;58450;52.150;4.466;2022-12-11T03:48:16;101010.56;;;2.14;100.00
66273;BME280;58450;52.150;4.466;2022-12-11T03:50:45;101007.53;;;2.19;100.00
66273;BME280;58450;52.150;4.466;2022-12-11T03:53:15;101005.56;;;2.21;100.00
66273;BME280;58450;52.150;4.466;2022-12-11T03:55:46;100998.91;;;2.27;100.00
66273;BME280;58450;52.150;4.466;2022-12-11T03:58:16;101002.47;;;2.16;100.00
66273;BME280;58450;52.150;4.466;2022-12-11T04:00:45;100997.59;;;2.21;100.00
66273;BME280;58450;52.150;4.466;2022-12-11T04:03:13;101005.56;;;2.21;100.00
66273;BME280;58450;52.150;4.466;2022-12-11T04:05:43;100994.81;;;2.22;100.00
66273;BME280;58450;52.150;4.466;2022-12-11T04:08:12;100995.06;;;2.19;100.00
66273;BME280;58450;52.150;4.466;2022-12-11T04:10:40;100996.19;;;2.17;100.00
66273;BME280;58450;52.150;4.466;2022-12-11T04:13:09;100993.28;;;2.20;100.00
66273;BME280;58450;52.150;4.466;2022-12-11T04:15:38;100993.59;;;2.05;100.00
66273;BME280;58450;52.150;4.466;2022-12-11T04:18:07;100994.16;;;2.09;100.00
66273;BME280;58450;52.150;4.466;2022-12-11T04:20:53;100987.94;;;1.99;100.00
66273;BME280;58450;52.150;4.466;2022-12-11T04:23:38;100985.16;;;2.00;100.00
66273;BME280;58450;52.150;4.466;2022-12-11T04:26:23;100984.56;;;1.97;100.00
66273;BME280;58450;52.150;4.466;2022-12-11T04:28:51;100984.25;;;2.11;100.00
66273;BME280;58450;52.150;4.466;2022-12-11T04:31:20;100983.28;;;2.12;100.00
66273;BME280;58450;52.150;4.466;2022-12-11T04:33:50;100989.09;;;2.06;100.00
66273;BME280;58450;52.150;4.466;2022-12-11T04:36:18;100989.75;;;1.98;100.00
66273;BME280;58450;52.150;4.466;2022-12-11T04:38:45;101010.13;;;1.98;100.00
66273;BME280;58450;52.150;4.466;2022-12-11T04:41:14;100993.69;;;2.04;100.00
66273;BME280;58450;52.150;4.466;2022-12-11T04:43:43;101001.91;;;2.01;100.00
66273;BME280;58450;52.150;4.466;2022-12-11T04:46:12;100994.63;;;2.14;100.00
66273;BME280;58450;52.150;4.466;2022-12-11T04:48:42;100996.31;;;2.15;100.00
66273;BME280;58450;52.150;4.466;2022-12-11T04:51:11;101003.19;;;2.18;100.00
66273;BME280;58450;52.150;4.466;2022-12-11T04:53:39;101004.78;;;2.30;100.00
66273;BME280;58450;52.150;4.466;2022-12-11T04:56:10;101005.50;;;2.32;100.00
66273;BME280;58450;52.150;4.466;2022-12-11T04:58:40;100999.47;;;2.30;100.00
66273;BME280;58450;52.150;4.466;2022-12-11T05:01:10;100995.59;;;2.34;100.00
66273;BME280;58450;52.150;4.466;2022-12-11T05:03:39;100989.72;;;2.31;100.00
66273;BME280;58450;52.150;4.466;2022-12-11T05:06:08;100995.34;;;2.38;100.00
66273;BME280;58450;52.150;4.466;2022-12-11T05:08:39;100995.00;;;2.52;100.00
66273;BME280;58450;52.150;4.466;2022-12-11T05:11:09;100987.22;;;2.60;100.00
66273;BME280;58450;52.150;4.466;2022-12-11T05:13:39;100990.59;;;2.62;100.00
66273;BME280;58450;52.150;4.466;2022-12-11T05:16:09;100993.97;;;2.64;100.00
66273;BME280;58450;52.150;4.466;2022-12-11T05:18:38;100994.94;;;2.63;100.00
66273;BME280;58450;52.150;4.466;2022-12-11T05:21:07;100990.06;;;2.69;100.00
66273;BME280;58450;52.150;4.466;2022-12-11T05:23:38;100989.38;;;2.66;100.00
66273;BME280;58450;52.150;4.466;2022-12-11T05:26:10;100981.94;;;2.70;100.00
66273;BME280;58450;52.150;4.466;2022-12-11T05:28:38;100987.41;;;2.69;100.00
66273;BME280;58450;52.150;4.466;2022-12-11T05:31:09;100979.00;;;2.63;100.00
66273;BME280;58450;52.150;4.466;2022-12-11T05:33:38;100980.41;;;2.68;100.00
66273;BME280;58450;52.150;4.466;2022-12-11T05:36:07;100973.56;;;2.65;100.00
66273;BME280;58450;52.150;4.466;2022-12-11T05:38:35;100968.91;;;2.57;100.00
66273;BME280;58450;52.150;4.466;2022-12-11T05:41:05;100962.75;;;2.57;100.00
66273;BME280;58450;52.150;4.466;2022-12-11T05:43:35;100955.41;;;2.49;100.00
66273;BME280;58450;52.150;4.466;2022-12-11T05:46:07;100958.53;;;2.54;100.00
66273;BME280;58450;52.150;4.466;2022-12-11T05:48:37;100954.16;;;2.43;100.00
66273;BME280;58450;52.150;4.466;2022-12-11T05:51:06;100960.69;;;2.39;100.00
66273;BME280;58450;52.150;4.466;2022-12-11T05:53:35;100963.00;;;2.32;100.00
66273;BME280;58450;52.150;4.466;2022-12-11T05:56:06;100961.06;;;2.34;100.00
66273;BME280;58450;52.150;4.466;2022-12-11T05:58:37;100959.91;;;2.27;100.00
66273;BME280;58450;52.150;4.466;2022-12-11T06:01:07;100969.88;;;2.35;100.00
66273;BME280;58450;52.150;4.466;2022-12-11T06:03:35;100962.69;;;2.26;100.00
66273;BME280;58450;52.150;4.466;2022-12-11T06:06:04;100962.56;;;2.27;100.00
66273;BME280;58450;52.150;4.466;2022-12-11T06:08:33;100956.97;;;2.30;100.00
66273;BME280;58450;52.150;4.466;2022-12-11T06:11:01;100970.41;;;2.29;100.00
66273;BME280;58450;52.150;4.466;2022-12-11T06:13:30;100971.44;;;2.38;100.00
66273;BME280;58450;52.150;4.466;2022-12-11T06:15:59;100959.53;;;2.32;100.00
66273;BME280;58450;52.150;4.466;2022-12-11T06:18:28;100956.16;;;2.30;100.00
66273;BME280;58450;52.150;4.466;2022-12-11T06:20:56;100959.72;;;2.40;100.00
66273;BME280;58450;52.150;4.466;2022-12-11T06:23:24;100964.94;;;2.30;100.00
66273;BME280;58450;52.150;4.466;2022-12-11T06:25:51;100962.81;;;2.24;100.00
66273;BME280;58450;52.150;4.466;2022-12-11T06:28:19;100969.38;;;2.20;100.00
66273;BME280;58450;52.150;4.466;2022-12-11T06:30:48;100971.25;;;2.29;100.00
66273;BME280;58450;52.150;4.466;2022-12-11T06:33:15;100971.59;;;2.15;100.00
66273;BME280;58450;52.150;4.466;2022-12-11T06:35:43;100967.88;;;2.27;100.00
66273;BME280;58450;52.150;4.466;2022-12-11T06:38:10;100962.97;;;2.22;100.00
66273;BME280;58450;52.150;4.466;2022-12-11T06:40:38;100976.03;;;2.35;100.00
66273;BME280;58450;52.150;4.466;2022-12-11T06:43:06;100970.25;;;2.30;100.00
66273;BME280;58450;52.150;4.466;2022-12-11T06:45:33;100974.75;;;2.30;100.00
66273;BME280;58450;52.150;4.466;2022-12-11T06:48:03;100971.25;;;2.29;100.00
66273;BME280;58450;52.150;4.466;2022-12-11T06:50:30;100964.75;;;2.22;100.00
66273;BME280;58450;52.150;4.466;2022-12-11T06:52:58;100962.00;;;2.24;100.00
66273;BME280;58450;52.150;4.466;2022-12-11T06:55:26;100965.47;;;2.24;100.00
66273;BME280;58450;52.150;4.466;2022-12-11T06:57:53;100964.75;;;2.22;100.00
66273;BME280;58450;52.150;4.466;2022-12-11T07:00:21;100970.78;;;2.24;100.00
66273;BME280;58450;52.150;4.466;2022-12-11T07:02:49;100965.47;;;2.24;100.00
66273;BME280;58450;52.150;4.466;2022-12-11T07:05:18;100973.13;;;2.17;100.00
66273;BME280;58450;52.150;4.466;2022-12-11T07:07:46;100968.38;;;2.21;100.00
66273;BME280;58450;52.150;4.466;2022-12-11T07:10:14;100967.97;;;2.16;100.00
66273;BME280;58450;52.150;4.466;2022-12-11T07:12:41;100967.09;;;2.15;100.00
66273;BME280;58450;52.150;4.466;2022-12-11T07:15:09;100968.97;;;2.25;100.00
66273;BME280;58450;52.150;4.466;2022-12-11T07:17:37;100968.78;;;2.16;100.00
66273;BME280;58450;52.150;4.466;2022-12-11T07:20:05;100968.84;;;2.26;100.00
66273;BME280;58450;52.150;4.466;2022-12-11T07:22:36;100964.94;;;2.30;100.00
66273;BME280;58450;52.150;4.466;2022-12-11T07:25:04;100968.13;;;2.24;100.00
66273;BME280;58450;52.150;4.466;2022-12-11T07:27:32;100973.28;;;2.16;100.00
66273;BME280;58450;52.150;4.466;2022-12-11T07:29:59;100976.19;;;2.13;100.00
66273;BME280;58450;52.150;4.466;2022-12-11T07:32:27;100971.94;;;2.10;100.00
66273;BME280;58450;52.150;4.466;2022-12-11T07:34:55;100969.44;;;2.09;100.00
66273;BME280;58450;52.150;4.466;2022-12-11T07:37:22;100964.66;;;2.02;100.00
66273;BME280;58450;52.150;4.466;2022-12-11T07:39:52;100970.66;;;2.04;100.00
66273;BME280;58450;52.150;4.466;2022-12-11T07:42:19;100977.91;;;2.02;100.00
66273;BME280;58450;52.150;4.466;2022-12-11T07:44:47;100975.88;;;1.95;100.00
66273;BME280;58450;52.150;4.466;2022-12-11T07:47:15;100982.31;;;1.92;100.00
66273;BME280;58450;52.150;4.466;2022-12-11T07:49:42;100984.09;;;1.91;100.00
66273;BME280;58450;52.150;4.466;2022-12-11T07:52:10;100986.38;;;1.96;100.00
66273;BME280;58450;52.150;4.466;2022-12-11T07:54:37;100997.56;;;2.00;100.00
66273;BME280;58450;52.150;4.466;2022-12-11T07:57:06;100999.00;;;2.04;100.00
66273;BME280;58450;52.150;4.466;2022-12-11T07:59:34;101000.31;;;2.10;100.00
66273;BME280;58450;52.150;4.466;2022-12-11T08:02:01;101004.53;;;2.12;100.00
66273;BME280;58450;52.150;4.466;2022-12-11T08:04:29;101009.47;;;2.17;100.00
66273;BME280;58450;52.150;4.466;2022-12-11T08:06:56;101007.63;;;2.17;100.00
66273;BME280;58450;52.150;4.466;2022-12-11T08:09:24;101006.41;;;2.21;100.00
66273;BME280;58450;52.150;4.466;2022-12-11T08:11:51;101001.94;;;2.22;100.00
66273;BME280;58450;52.150;4.466;2022-12-11T08:14:20;101007.53;;;2.19;100.00
66273;BME280;58450;52.150;4.466;2022-12-11T08:16:48;101004.72;;;2.20;100.00
66273;BME280;58450;52.150;4.466;2022-12-11T08:19:16;101004.72;;;2.20;100.00
66273;BME280;58450;52.150;4.466;2022-12-11T08:21:43;100993.84;;;2.24;100.00
66273;BME280;58450;52.150;4.466;2022-12-11T08:24:11;100999.72;;;2.27;100.00
66273;BME280;58450;52.150;4.466;2022-12-11T08:26:41;101002.34;;;2.39;100.00
66273;BME280;58450;52.150;4.466;2022-12-11T08:29:08;100998.59;;;2.41;100.00
66273;BME280;58450;52.150;4.466;2022-12-11T08:31:37;100997.47;;;2.44;100.00
66273;BME280;58450;52.150;4.466;2022-12-11T08:34:06;101005.31;;;2.45;100.00
66273;BME280;58450;52.150;4.466;2022-12-11T08:36:33;101000.41;;;2.62;100.00
66273;BME280;58450;52.150;4.466;2022-12-11T08:39:01;101003.03;;;2.83;100.00
66273;BME280;58450;52.150;4.466;2022-12-11T08:41:29;101006.50;;;2.84;100.00
66273;BME280;58450;52.150;4.466;2022-12-11T08:43:57;101005.69;;;2.83;100.00
66273;BME280;58450;52.150;4.466;2022-12-11T08:46:28;101008.19;;;2.85;100.00
66273;BME280;58450;52.150;4.466;2022-12-11T08:48:58;101007.94;;;2.88;100.00
66273;BME280;58450;52.150;4.466;2022-12-11T08:51:28;101005.44;;;2.96;100.00
66273;BME280;58450;52.150;4.466;2022-12-11T08:53:57;101003.38;;;3.00;100.00
66273;BME280;58450;52.150;4.466;2022-12-11T08:56:27;101006.50;;;2.84;100.00
66273;BME280;58450;52.150;4.466;2022-12-11T08:58:58;101003.38;;;3.00;100.00
66273;BME280;58450;52.150;4.466;2022-12-11T09:01:27;100998.06;;;3.00;100.00
66273;BME280;58450;52.150;4.466;2022-12-11T09:03:55;100999.31;;;3.05;100.00
66273;BME280;58450;52.150;4.466;2022-12-11T09:06:26;101001.16;;;3.05;100.00
66273;BME280;58450;52.150;4.466;2022-12-11T09:08:58;100996.06;;;2.92;100.00
66273;BME280;58450;52.150;4.466;2022-12-11T09:11:28;101000.19;;;3.06;100.00
66273;BME280;58450;52.150;4.466;2022-12-11T09:13:57;100999.75;;;3.01;100.00
66273;BME280;58450;52.150;4.466;2022-12-11T09:16:26;101000.72;;;3.00;100.00
66273;BME280;58450;52.150;4.466;2022-12-11T09:18:55;100993.56;;;3.00;100.00
66273;BME280;58450;52.150;4.466;2022-12-11T09:21:27;100990.53;;;3.05;100.00
66273;BME280;58450;52.150;4.466;2022-12-11T09:23:57;100991.09;;;3.08;100.00
66273;BME280;58450;52.150;4.466;2022-12-11T09:26:28;100993.19;;;3.05;100.00
66273;BME280;58450;52.150;4.466;2022-12-11T09:28:56;100991.38;;;3.15;100.00
66273;BME280;58450;52.150;4.466;2022-12-11T09:31:27;100989.69;;;3.14;100.00
66273;BME280;58450;52.150;4.466;2022-12-11T09:33:57;100988.34;;;3.30;100.00
66273;BME280;58450;52.150;4.466;2022-12-11T09:36:28;100994.00;;;3.46;100.00
66273;BME280;58450;52.150;4.466;2022-12-11T09:38:58;100994.84;;;3.57;100.00
66273;BME280;58450;52.150;4.466;2022-12-11T09:41:46;100993.59;;;3.51;100.00
66273;BME280;58450;52.150;4.466;2022-12-11T09:44:36;100986.00;;;3.56;100.00
66273;BME280;58450;52.150;4.466;2022-12-11T09:47:22;100982.97;;;3.61;100.00
66273;BME280;58450;52.150;4.466;2022-12-11T09:50:00;100988.00;;;3.64;100.00
66273;BME280;58450;52.150;4.466;2022-12-11T09:52:42;100989.81;;;3.63;100.00
66273;BME280;58450;52.150;4.466;2022-12-11T09:55:24;100981.28;;;3.89;100.00
66273;BME280;58450;52.150;4.466;2022-12-11T09:58:05;100981.84;;;3.73;100.00
66273;BME280;58450;52.150;4.466;2022-12-11T10:00:47;100985.34;;;3.74;100.00
66273;BME280;58450;52.150;4.466;2022-12-11T10:03:44;100986.31;;;4.02;100.00
66273;BME280;58450;52.150;4.466;2022-12-11T10:06:30;100985.19;;;4.14;100.00
66273;BME280;58450;52.150;4.466;2022-12-11T10:09:12;100984.91;;;4.18;100.00
66273;BME280;58450;52.150;4.466;2022-12-11T10:11:56;100973.81;;;4.32;100.00
66273;BME280;58450;52.150;4.466;2022-12-11T10:14:42;100972.66;;;4.54;100.00
66273;BME280;58450;52.150;4.466;2022-12-11T10:17:24;100983.13;;;4.76;100.00
66273;BME280;58450;52.150;4.466;2022-12-11T10:19:56;100974.41;;;4.83;100.00
66273;BME280;58450;52.150;4.466;2022-12-11T10:22:30;100981.03;;;4.69;100.00
66273;BME280;58450;52.150;4.466;2022-12-11T10:25:02;100975.78;;;4.30;100.00
66273;BME280;58450;52.150;4.466;2022-12-11T10:27:34;100962.50;;;4.10;100.00
66273;BME280;58450;52.150;4.466;2022-12-11T10:30:13;100961.81;;;4.18;100.00
66273;BME280;58450;52.150;4.466;2022-12-11T10:32:50;100970.75;;;4.07;100.00
66273;BME280;58450;52.150;4.466;2022-12-11T10:35:27;100962.38;;;3.63;100.00
66273;BME280;58450;52.150;4.466;2022-12-11T10:38:09;100958.28;;;3.98;100.00
66273;BME280;58450;52.150;4.466;2022-12-11T10:40:47;100961.97;;;3.97;100.00
66273;BME280;58450;52.150;4.466;2022-12-11T10:43:17;100962.25;;;3.94;100.00
66273;BME280;58450;52.150;4.466;2022-12-11T10:45:52;100963.09;;;3.84;100.00
66273;BME280;58450;52.150;4.466;2022-12-11T10:48:20;100959.31;;;3.97;100.00
66273;BME280;58450;52.150;4.466;2022-12-11T10:50:57;100959.03;;;3.80;100.00
66273;BME280;58450;52.150;4.466;2022-12-11T10:53:28;100954.97;;;3.96;100.00
66273;BME280;58450;52.150;4.466;2022-12-11T10:55:58;100958.16;;;4.19;100.00
66273;BME280;58450;52.150;4.466;2022-12-11T10:58:29;100949.03;;;4.22;100.00
66273;BME280;58450;52.150;4.466;2022-12-11T11:01:04;100944.72;;;4.11;100.00
66273;BME280;58450;52.150;4.466;2022-12-11T11:03:35;100949.75;;;4.62;100.00
66273;BME280;58450;52.150;4.466;2022-12-11T11:06:15;100943.78;;;4.87;100.00
66273;BME280;58450;52.150;4.466;2022-12-11T11:08:46;100948.66;;;4.92;100.00
66273;BME280;58450;52.150;4.466;2022-12-11T11:11:23;100939.66;;;4.93;100.00
66273;BME280;58450;52.150;4.466;2022-12-11T11:14:04;100936.84;;;4.67;100.00
66273;BME280;58450;52.150;4.466;2022-12-11T11:16:35;100935.91;;;4.58;100.00
66273;BME280;58450;52.150;4.466;2022-12-11T11:19:04;100942.25;;;4.37;100.00
66273;BME280;58450;52.150;4.466;2022-12-11T11:21:33;100938.81;;;4.07;100.00
66273;BME280;58450;52.150;4.466;2022-12-11T11:24:02;100936.69;;;4.21;100.00
66273;BME280;58450;52.150;4.466;2022-12-11T11:26:32;100933.44;;;4.27;100.00
66273;BME280;58450;52.150;4.466;2022-12-11T11:29:00;100939.16;;;4.42;100.00
66273;BME280;58450;52.150;4.466;2022-12-11T11:31:32;100937.31;;;4.52;100.00
66273;BME280;58450;52.150;4.466;2022-12-11T11:34:05;100936.69;;;4.31;100.00
66273;BME280;58450;52.150;4.466;2022-12-11T11:36:36;100945.94;;;4.17;100.00
66273;BME280;58450;52.150;4.466;2022-12-11T11:39:16;100948.31;;;4.29;100.00
66273;BME280;58450;52.150;4.466;2022-12-11T11:41:55;100945.41;;;4.03;100.00
66273;BME280;58450;52.150;4.466;2022-12-11T11:44:33;100940.34;;;4.20;100.00
66273;BME280;58450;52.150;4.466;2022-12-11T11:47:09;100933.09;;;3.82;100.00
66273;BME280;58450;52.150;4.466;2022-12-11T11:49:49;100933.78;;;3.65;100.00
66273;BME280;58450;52.150;4.466;2022-12-11T11:52:26;100939.78;;;3.57;100.00
66273;BME280;58450;52.150;4.466;2022-12-11T11:55:04;100934.38;;;3.78;100.00
66273;BME280;58450;52.150;4.466;2022-12-11T11:57:41;100926.66;;;3.95;100.00
66273;BME280;58450;52.150;4.466;2022-12-11T12:00:18;100934.47;;;3.96;100.00
66273;BME280;58450;52.150;4.466;2022-12-11T12:02:48;100937.31;;;3.75;100.00
66273;BME280;58450;52.150;4.466;2022-12-11T12:05:24;100930.31;;;3.74;100.00
66273;BME280;58450;52.150;4.466;2022-12-11T12:08:06;100927.06;;;3.90;100.00
66273;BME280;58450;52.150;4.466;2022-12-11T12:10:44;100929.59;;;3.72;100.00
66273;BME280;58450;52.150;4.466;2022-12-11T12:13:24;100927.91;;;3.91;100.00
66273;BME280;58450;52.150;4.466;2022-12-11T12:16:00;100928.34;;;3.96;100.00
66273;BME280;58450;52.150;4.466;2022-12-11T12:18:36;100924.00;;;3.95;100.00
66273;BME280;58450;52.150;4.466;2022-12-11T12:21:18;100922.88;;;3.88;100.00
66273;BME280;58450;52.150;4.466;2022-12-11T12:24:14;100921.31;;;4.05;100.00
66273;BME280;58450;52.150;4.466;2022-12-11T12:26:52;100920.59;;;4.03;100.00
66273;BME280;58450;52.150;4.466;2022-12-11T12:29:38;100925.81;;;3.84;100.00
66273;BME280;58450;52.150;4.466;2022-12-11T12:32:18;100928.03;;;3.99;100.00
66273;BME280;58450;52.150;4.466;2022-12-11T12:35:03;100925.66;;;4.06;100.00
66273;BME280;58450;52.150;4.466;2022-12-11T12:37:47;100924.00;;;3.95;100.00
66273;BME280;58450;52.150;4.466;2022-12-11T12:40:29;100914.44;;;3.92;100.00
66273;BME280;58450;52.150;4.466;2022-12-11T12:43:07;100913.19;;;3.96;100.00
66273;BME280;58450;52.150;4.466;2022-12-11T12:46:02;100918.66;;;3.95;100.00
66273;BME280;58450;52.150;4.466;2022-12-11T12:48:39;100916.28;;;3.82;100.00
66273;BME280;58450;52.150;4.466;2022-12-11T12:51:12;100913.88;;;3.98;100.00
66273;BME280;58450;52.150;4.466;2022-12-11T12:53:41;100910.38;;;3.98;100.00
66273;BME280;58450;52.150;4.466;2022-12-11T12:56:13;100916.97;;;3.94;100.00
66273;BME280;58450;52.150;4.466;2022-12-11T12:58:44;100912.34;;;4.06;100.00
66273;BME280;58450;52.150;4.466;2022-12-11T13:01:17;100901.41;;;4.09;100.00
66273;BME280;58450;52.150;4.466;2022-12-11T13:03:52;100908.53;;;4.08;100.00
66273;BME280;58450;52.150;4.466;2022-12-11T13:06:33;100908.78;;;4.25;100.00
66273;BME280;58450;52.150;4.466;2022-12-11T13:09:14;100901.84;;;3.94;100.00
66273;BME280;58450;52.150;4.466;2022-12-11T13:11:44;100901.00;;;3.94;100.00
66273;BME280;58450;52.150;4.466;2022-12-11T13:14:24;100913.06;;;3.59;100.00
66273;BME280;58450;52.150;4.466;2022-12-11T13:17:21;100897.34;;;3.36;100.00
66273;BME280;58450;52.150;4.466;2022-12-11T13:20:09;100904.22;;;3.78;100.00